Terminal Aerodrome Forecast
Issued by NWS Charleston, WV

Current Version | Previous Version | Graphics & Text | Print | Product List | Glossary On
Versions: 1 2 3 4 5 6 7 8 9 10 11 12 13 14 15 16 17 18 19 20 21 22 23 24 25
000
FTUS41 KRLX 201100
TAFBKW
TAF
KBKW 201134Z 2012/2112 14006KT P6SM SKC
      TEMPO 2013/2015 16007KT BKN015
     FM201500 16006KT P6SM SCT025
     FM201700 16004KT P6SM SCT035
     FM210200 16008G16KT P6SM FEW050
     FM211100 23007KT P6SM SCT050=

USA.gov is the U.S. government's official web portal to all federal, state and local government web resources and services.